Time;durP1;ratioP1;P1;durP2;ratioP2;P2;SDS_P1;SDS_P2;PMS_P1;PMS_P2;Temp;Humidity;BMP_temperature;BMP_pressure;BME280_temperature;BME280_humidity;BME280_pressure;Samples;Min_cycle;Max_cycle;Signal;HPM_P1;HPM_P2
2021/08/01 00:00:05;;;;;;;4.87;2.80;;;17.60;99.90;;;;;;5108724;27;20434;-75
2021/08/01 00:02:33;;;;;;;4.30;3.80;;;17.60;99.90;;;;;;5113839;28;21044;-76
2021/08/01 00:05:01;;;;;;;3.80;3.37;;;17.60;99.90;;;;;;5109504;27;20427;-76
2021/08/01 00:07:28;;;;;;;3.47;3.17;;;17.60;99.90;;;;;;5087366;28;20432;-76
2021/08/01 00:09:58;;;;;;;4.23;2.93;;;17.60;99.90;;;;;;5110940;28;20422;-75
2021/08/01 00:12:25;;;;;;;4.30;3.40;;;17.60;99.90;;;;;;5106625;27;20440;-76
2021/08/01 00:14:52;;;;;;;3.97;2.80;;;17.50;99.90;;;;;;5131440;27;20444;-76
2021/08/01 00:17:19;;;;;;;5.13;3.30;;;17.50;99.90;;;;;;5134195;27;20435;-77
2021/08/01 00:19:47;;;;;;;4.87;3.30;;;17.50;99.90;;;;;;5107321;27;20443;-77
2021/08/01 00:22:14;;;;;;;4.90;2.80;;;17.40;99.90;;;;;;5105666;27;20472;-75
2021/08/01 00:24:41;;;;;;;3.00;2.80;;;17.40;99.90;;;;;;5111799;28;20447;-75
2021/08/01 00:27:08;;;;;;;3.53;3.00;;;17.40;99.90;;;;;;5107298;27;20437;-75
2021/08/01 00:29:35;;;;;;;2.90;2.60;;;17.30;99.90;;;;;;5112033;28;20494;-76
2021/08/01 00:32:04;;;;;;;3.13;2.80;;;17.30;99.90;;;;;;5113928;28;20950;-75
2021/08/01 00:34:31;;;;;;;5.47;3.20;;;17.20;99.90;;;;;;5087605;27;20418;-76
2021/08/01 00:36:59;;;;;;;3.37;3.07;;;17.20;99.90;;;;;;5114703;28;20446;-76
2021/08/01 00:39:26;;;;;;;3.87;3.03;;;17.10;99.90;;;;;;5115331;28;20495;-76
2021/08/01 00:41:53;;;;;;;3.23;2.80;;;17.10;99.90;;;;;;5107490;27;20446;-76
2021/08/01 00:44:19;;;;;;;3.90;3.20;;;17.00;99.90;;;;;;5108963;28;20421;-76
2021/08/01 00:46:47;;;;;;;4.33;3.13;;;17.00;99.90;;;;;;5111188;28;20441;-76
2021/08/01 00:49:14;;;;;;;3.50;3.20;;;16.90;99.90;;;;;;5107390;27;20436;-75
2021/08/01 00:51:41;;;;;;;3.50;3.17;;;16.90;99.90;;;;;;5112852;28;20429;-75
2021/08/01 00:54:09;;;;;;;4.50;3.20;;;16.80;99.90;;;;;;5090990;28;20456;-75
2021/08/01 00:56:36;;;;;;;3.30;3.00;;;16.80;99.90;;;;;;5106567;27;20526;-75
2021/08/01 00:59:03;;;;;;;3.70;3.07;;;16.80;99.90;;;;;;5125525;27;20478;-75
2021/08/01 01:01:35;;;;;;;3.37;3.07;;;16.80;99.90;;;;;;5135507;27;20435;-76
2021/08/01 01:04:12;;;;;;;3.93;3.00;;;16.80;99.90;;;;;;5109062;27;20447;-75
2021/08/01 01:06:52;;;;;;;3.80;3.40;;;16.70;99.90;;;;;;5107131;28;20466;-75
2021/08/01 01:09:30;;;;;;;3.23;2.93;;;16.70;99.90;;;;;;5109389;28;20538;-75
2021/08/01 01:12:03;;;;;;;4.67;2.80;;;16.70;99.90;;;;;;5101000;27;20552;-76
2021/08/01 01:14:32;;;;;;;2.87;2.57;;;16.70;99.90;;;;;;5085063;27;20425;-75
2021/08/01 01:17:03;;;;;;;3.50;3.20;;;16.70;99.90;;;;;;5111179;27;20462;-75
2021/08/01 01:19:54;;;;;;;3.70;3.17;;;16.70;99.90;;;;;;5110038;28;20449;-75
2021/08/01 01:22:30;;;;;;;3.97;3.10;;;16.80;99.90;;;;;;5102048;27;20437;-75
2021/08/01 01:25:01;;;;;;;3.07;2.77;;;16.80;99.90;;;;;;5109735;28;20440;-75
2021/08/01 01:27:36;;;;;;;3.37;3.00;;;16.80;99.90;;;;;;5104045;28;20899;-75
2021/08/01 01:30:05;;;;;;;3.60;3.10;;;16.70;99.90;;;;;;5107132;27;20470;-75
2021/08/01 01:32:38;;;;;;;3.40;3.10;;;16.80;99.90;;;;;;5094645;28;20485;-75
2021/08/01 01:35:09;;;;;;;3.90;3.50;;;16.80;99.90;;;;;;5103941;28;20608;-76
2021/08/01 01:37:37;;;;;;;3.73;2.63;;;16.80;99.90;;;;;;5101457;27;20540;-76
2021/08/01 01:40:08;;;;;;;3.63;3.33;;;16.80;99.90;;;;;;5110577;28;20498;-75
2021/08/01 01:42:37;;;;;;;3.40;2.83;;;16.80;99.90;;;;;;5111633;28;20468;-76
2021/08/01 01:45:04;;;;;;;4.07;3.10;;;16.90;99.90;;;;;;5106332;27;20786;-75
2021/08/01 01:47:32;;;;;;;6.40;3.63;;;16.80;99.90;;;;;;5109536;28;20451;-75
2021/08/01 01:50:00;;;;;;;4.20;3.50;;;16.80;99.90;;;;;;5106617;28;20473;-74
2021/08/01 01:52:30;;;;;;;4.03;3.53;;;16.80;99.90;;;;;;5110188;28;20455;-75
2021/08/01 01:54:58;;;;;;;3.80;3.40;;;16.80;99.90;;;;;;5088447;28;20431;-76
2021/08/01 01:57:25;;;;;;;6.23;3.87;;;16.80;99.90;;;;;;5094115;27;20814;-77
2021/08/01 01:59:53;;;;;;;3.90;3.40;;;16.80;99.90;;;;;;5106515;27;20445;-77
2021/08/01 02:02:21;;;;;;;7.30;3.90;;;16.80;99.90;;;;;;5113687;27;20972;-75
2021/08/01 02:04:48;;;;;;;3.70;3.40;;;16.80;99.90;;;;;;5108917;28;20784;-75
2021/08/01 02:07:14;;;;;;;3.53;3.23;;;16.80;99.90;;;;;;5104161;27;21902;-76
2021/08/01 02:09:47;;;;;;;5.03;3.43;;;16.80;99.90;;;;;;5111306;28;20451;-77
2021/08/01 02:12:19;;;;;;;5.70;3.67;;;16.90;99.90;;;;;;5092806;28;20432;-76
2021/08/01 02:14:55;;;;;;;4.53;3.37;;;16.90;99.90;;;;;;5111902;28;20457;-76
2021/08/01 02:17:30;;;;;;;5.53;3.80;;;16.80;99.90;;;;;;5107783;28;20467;-74
2021/08/01 02:20:00;;;;;;;3.63;3.30;;;16.90;99.90;;;;;;5086416;28;20464;-76
2021/08/01 02:22:27;;;;;;;6.30;2.90;;;16.90;99.90;;;;;;5102884;28;20478;-76
2021/08/01 02:24:56;;;;;;;3.73;3.43;;;16.90;99.90;;;;;;5111100;28;20417;-76
2021/08/01 02:27:25;;;;;;;3.80;3.37;;;16.90;99.90;;;;;;5112035;28;20441;-76
2021/08/01 02:29:52;;;;;;;4.70;3.47;;;16.90;99.90;;;;;;5122867;28;20473;-75
2021/08/01 02:32:20;;;;;;;3.73;3.30;;;16.90;99.90;;;;;;5107243;28;20456;-75
2021/08/01 02:34:47;;;;;;;6.70;3.20;;;16.90;99.90;;;;;;5101285;28;20425;-75
2021/08/01 02:37:17;;;;;;;4.30;3.33;;;16.90;99.90;;;;;;5124503;28;20491;-76
2021/08/01 02:39:45;;;;;;;4.00;3.60;;;16.90;99.90;;;;;;5131438;27;21117;-76
2021/08/01 02:42:14;;;;;;;3.80;3.37;;;16.90;99.90;;;;;;5092225;28;20474;-76
2021/08/01 02:44:44;;;;;;;3.67;3.33;;;16.90;99.90;;;;;;5074854;28;20447;-76
2021/08/01 02:47:17;;;;;;;4.63;3.10;;;16.90;99.90;;;;;;5101672;28;20458;-76
2021/08/01 02:49:46;;;;;;;4.57;3.50;;;17.00;99.90;;;;;;5107966;28;20436;-75
2021/08/01 02:52:16;;;;;;;5.53;2.97;;;17.00;99.90;;;;;;5108527;28;20486;-76
2021/08/01 02:54:48;;;;;;;3.63;3.33;;;17.00;99.90;;;;;;5089949;28;20441;-76
2021/08/01 02:57:18;;;;;;;5.30;3.50;;;17.00;99.90;;;;;;5109559;28;20431;-76
2021/08/01 02:59:47;;;;;;;3.77;3.43;;;17.00;99.90;;;;;;5108572;27;20479;-76
2021/08/01 03:02:14;;;;;;;4.27;2.90;;;17.00;99.90;;;;;;5113458;27;20453;-75
2021/08/01 03:04:42;;;;;;;4.90;3.27;;;17.00;99.90;;;;;;5118554;27;20461;-75
2021/08/01 03:07:12;;;;;;;4.10;3.30;;;17.00;99.90;;;;;;5117371;28;20442;-75
2021/08/01 03:09:40;;;;;;;3.67;3.10;;;17.00;99.90;;;;;;5104861;27;20439;-76
2021/08/01 03:12:10;;;;;;;4.50;3.30;;;17.00;99.90;;;;;;5111387;27;20957;-76
2021/08/01 03:14:37;;;;;;;3.73;3.00;;;17.00;99.90;;;;;;5113202;27;20461;-75
2021/08/01 03:17:06;;;;;;;3.93;3.43;;;16.90;99.90;;;;;;5108045;27;20445;-76
2021/08/01 03:19:34;;;;;;;3.80;3.23;;;16.90;99.90;;;;;;5114050;28;20598;-75
2021/08/01 03:22:01;;;;;;;5.13;3.07;;;16.90;99.90;;;;;;5096292;28;20478;-75
2021/08/01 03:24:28;;;;;;;3.27;2.97;;;16.90;99.90;;;;;;5099513;27;20427;-75
2021/08/01 03:26:55;;;;;;;3.50;3.20;;;16.90;99.90;;;;;;5106266;28;20449;-75
2021/08/01 03:29:22;;;;;;;3.53;3.23;;;16.90;99.90;;;;;;5114600;28;20781;-76
2021/08/01 03:31:49;;;;;;;5.50;3.10;;;16.90;99.90;;;;;;5094398;28;20452;-76
2021/08/01 03:34:17;;;;;;;5.00;3.63;;;16.90;99.90;;;;;;5114533;28;20903;-74
2021/08/01 03:36:44;;;;;;;5.13;3.40;;;16.90;99.90;;;;;;5109477;27;20426;-75
2021/08/01 03:39:11;;;;;;;4.87;3.67;;;16.80;99.90;;;;;;5112250;27;20454;-76
2021/08/01 03:41:38;;;;;;;5.90;4.10;;;16.80;99.90;;;;;;5116372;28;20463;-77
2021/08/01 03:44:05;;;;;;;4.13;3.50;;;16.80;99.90;;;;;;5110761;28;20771;-76
2021/08/01 03:46:32;;;;;;;3.80;3.40;;;16.80;99.90;;;;;;5101910;27;20467;-75
2021/08/01 03:48:59;;;;;;;5.40;3.53;;;16.80;99.90;;;;;;5112370;28;20435;-76
2021/08/01 03:51:27;;;;;;;4.10;3.70;;;16.70;99.90;;;;;;5111433;28;20792;-76
2021/08/01 03:53:54;;;;;;;3.70;3.40;;;16.70;99.90;;;;;;5125730;27;20451;-75
2021/08/01 03:56:21;;;;;;;4.57;3.70;;;16.70;99.90;;;;;;5134708;27;20397;-74
2021/08/01 03:58:48;;;;;;;4.23;3.60;;;16.60;99.90;;;;;;5106872;28;20453;-75
2021/08/01 04:01:16;;;;;;;4.40;4.00;;;16.60;99.90;;;;;;5105351;27;20430;-75
2021/08/01 04:03:43;;;;;;;4.73;3.90;;;16.60;99.90;;;;;;5102361;28;20483;-75
2021/08/01 04:06:10;;;;;;;4.77;3.67;;;16.60;99.90;;;;;;5092436;28;20435;-76
2021/08/01 04:08:38;;;;;;;4.50;4.10;;;16.60;99.90;;;;;;5103333;27;20425;-77
2021/08/01 04:11:05;;;;;;;6.33;4.53;;;16.50;99.90;;;;;;5103258;27;20448;-75
2021/08/01 04:13:33;;;;;;;5.03;4.30;;;16.50;99.90;;;;;;5089623;28;20422;-75
2021/08/01 04:16:00;;;;;;;5.50;4.77;;;16.50;99.90;;;;;;5097798;28;20407;-76
2021/08/01 04:18:29;;;;;;;4.30;3.90;;;16.50;99.90;;;;;;5097888;28;20440;-76
2021/08/01 04:20:56;;;;;;;5.03;4.50;;;16.50;99.90;;;;;;5104982;27;20839;-77
2021/08/01 04:23:23;;;;;;;4.60;3.77;;;16.50;99.90;;;;;;5110231;28;20450;-75
2021/08/01 04:25:51;;;;;;;4.80;4.10;;;16.50;99.90;;;;;;5111449;28;20453;-75
2021/08/01 04:28:18;;;;;;;6.87;4.63;;;16.50;99.90;;;;;;5087744;28;20931;-75
2021/08/01 04:30:45;;;;;;;5.00;4.53;;;16.50;99.90;;;;;;5095541;28;20424;-76
2021/08/01 04:33:12;;;;;;;4.70;4.00;;;16.50;99.90;;;;;;5113008;28;20962;-75
2021/08/01 04:35:39;;;;;;;5.53;4.60;;;16.50;99.90;;;;;;5110079;27;20459;-76
2021/08/01 04:38:06;;;;;;;6.23;5.10;;;16.60;99.90;;;;;;5115452;28;20410;-75
2021/08/01 04:40:33;;;;;;;5.23;4.73;;;16.60;99.90;;;;;;5112785;28;20461;-75
2021/08/01 04:43:01;;;;;;;7.37;5.53;;;16.60;99.90;;;;;;5090629;28;20446;-75
2021/08/01 04:45:28;;;;;;;9.90;6.03;;;16.50;99.90;;;;;;5110313;28;20433;-76
2021/08/01 04:47:55;;;;;;;5.60;4.53;;;16.60;99.90;;;;;;5108817;27;20433;-75
2021/08/01 04:50:22;;;;;;;5.10;4.20;;;16.60;99.90;;;;;;5133433;27;20404;-76
2021/08/01 04:52:51;;;;;;;6.90;4.50;;;16.60;99.90;;;;;;5128088;27;20973;-75
2021/08/01 04:55:19;;;;;;;9.10;4.37;;;16.60;99.90;;;;;;5101585;27;20813;-76
2021/08/01 04:57:46;;;;;;;8.07;4.97;;;16.60;99.90;;;;;;5106932;28;20927;-75
2021/08/01 05:00:15;;;;;;;5.67;5.17;;;16.60;99.90;;;;;;5110951;28;20454;-75
2021/08/01 05:02:42;;;;;;;5.90;4.73;;;16.60;99.90;;;;;;5084672;27;20448;-75
2021/08/01 05:05:10;;;;;;;5.23;4.40;;;16.60;99.90;;;;;;5111396;28;20433;-77
2021/08/01 05:07:36;;;;;;;5.03;4.00;;;16.60;99.90;;;;;;5106908;27;20470;-75
2021/08/01 05:10:04;;;;;;;6.10;4.10;;;16.70;99.90;;;;;;5109639;28;20453;-75
2021/08/01 05:12:31;;;;;;;6.93;5.67;;;16.70;99.90;;;;;;5092158;28;20451;-77
2021/08/01 05:14:58;;;;;;;7.07;4.60;;;16.70;99.90;;;;;;5107258;27;20442;-74
2021/08/01 05:17:26;;;;;;;6.93;4.73;;;16.70;99.90;;;;;;5108001;27;20461;-74
2021/08/01 05:19:53;;;;;;;10.53;5.23;;;16.70;99.90;;;;;;5112839;28;20487;-75
2021/08/01 05:22:20;;;;;;;7.77;4.97;;;16.70;99.90;;;;;;5109744;28;20783;-73
2021/08/01 05:24:46;;;;;;;7.93;4.93;;;16.70;99.90;;;;;;5135221;27;20440;-74
2021/08/01 05:27:13;;;;;;;9.20;4.80;;;16.70;99.90;;;;;;5135256;27;20742;-75
2021/08/01 05:29:40;;;;;;;8.00;5.07;;;16.80;99.90;;;;;;5113032;28;20835;-73
2021/08/01 05:32:08;;;;;;;7.87;4.90;;;16.80;99.90;;;;;;5111243;28;20439;-72
2021/08/01 05:34:36;;;;;;;12.47;5.30;;;16.80;99.90;;;;;;5101608;28;20787;-73
2021/08/01 05:37:03;;;;;;;9.50;4.90;;;16.80;99.90;;;;;;5100605;27;20456;-73
2021/08/01 05:39:32;;;;;;;4.33;3.70;;;16.80;99.90;;;;;;5103954;27;20826;-71
2021/08/01 05:41:59;;;;;;;10.30;4.53;;;16.80;99.90;;;;;;5111758;28;20831;-73
2021/08/01 05:44:26;;;;;;;7.10;4.43;;;16.80;99.90;;;;;;5110993;28;20466;-73
2021/08/01 05:46:52;;;;;;;5.37;4.20;;;16.80;99.90;;;;;;5109078;27;20459;-72
2021/08/01 05:49:19;;;;;;;5.97;4.20;;;16.80;99.90;;;;;;5114292;28;20915;-73
2021/08/01 05:51:47;;;;;;;4.63;3.97;;;16.80;99.90;;;;;;5112227;28;20451;-74
2021/08/01 05:54:14;;;;;;;5.50;4.03;;;16.80;99.90;;;;;;5110759;28;20401;-77
2021/08/01 05:56:41;;;;;;;6.70;4.30;;;16.80;99.90;;;;;;5108071;28;20732;-75
2021/08/01 05:59:08;;;;;;;4.87;4.00;;;16.80;99.90;;;;;;5109325;28;20468;-73
2021/08/01 06:01:35;;;;;;;6.83;4.23;;;16.80;99.90;;;;;;5111925;28;20964;-72
2021/08/01 06:04:02;;;;;;;5.63;4.57;;;16.80;99.90;;;;;;5105751;28;20779;-73
2021/08/01 06:06:29;;;;;;;8.63;5.70;;;16.80;99.90;;;;;;5107904;27;20426;-73
2021/08/01 06:08:57;;;;;;;4.90;4.37;;;16.90;99.90;;;;;;5114129;28;20410;-73
2021/08/01 06:11:24;;;;;;;6.30;4.87;;;17.00;99.90;;;;;;5104989;28;20551;-72
2021/08/01 06:13:51;;;;;;;5.50;3.80;;;17.20;99.90;;;;;;5107348;28;20430;-73
2021/08/01 06:16:18;;;;;;;5.83;3.93;;;17.40;99.90;;;;;;5091446;28;20430;-73
2021/08/01 06:18:45;;;;;;;5.97;4.50;;;17.60;99.90;;;;;;5106265;28;20450;-73
2021/08/01 06:21:15;;;;;;;5.90;4.60;;;17.80;99.90;;;;;;5111049;28;20494;-72
2021/08/01 06:23:43;;;;;;;9.00;4.47;;;18.00;99.90;;;;;;5089055;28;20451;-73
2021/08/01 06:26:12;;;;;;;6.43;4.80;;;18.20;99.90;;;;;;5090611;28;20488;-72
2021/08/01 06:28:39;;;;;;;7.00;4.20;;;18.40;99.90;;;;;;5089600;28;20427;-72
2021/08/01 06:31:08;;;;;;;4.73;4.20;;;18.60;99.90;;;;;;5107901;28;20470;-72
2021/08/01 06:33:35;;;;;;;8.00;4.93;;;18.80;99.90;;;;;;5071380;27;21085;-74
2021/08/01 06:36:06;;;;;;;10.93;4.47;;;19.00;99.90;;;;;;5084828;27;20445;-76
2021/08/01 06:38:33;;;;;;;5.80;4.47;;;19.20;99.90;;;;;;5123232;27;20462;-72
2021/08/01 06:41:00;;;;;;;8.30;4.40;;;19.30;99.90;;;;;;5112063;27;20485;-72
2021/08/01 06:43:28;;;;;;;5.07;4.17;;;19.50;99.90;;;;;;5110503;28;20474;-73
2021/08/01 06:45:55;;;;;;;6.23;3.67;;;19.60;99.90;;;;;;5103867;28;20443;-73
2021/08/01 06:48:22;;;;;;;7.47;4.27;;;19.70;99.90;;;;;;5086304;28;20450;-74
2021/08/01 06:50:49;;;;;;;5.10;3.30;;;19.80;99.90;;;;;;5099997;28;20601;-73
2021/08/01 06:53:17;;;;;;;6.27;4.07;;;20.00;99.90;;;;;;5107428;27;20481;-73
2021/08/01 06:55:44;;;;;;;5.70;3.40;;;20.10;99.90;;;;;;5101181;27;20470;-74
2021/08/01 06:58:11;;;;;;;5.00;3.00;;;20.30;99.90;;;;;;5111516;28;20434;-72
2021/08/01 07:00:39;;;;;;;8.60;3.50;;;20.50;99.90;;;;;;5124530;27;20495;-73
2021/08/01 07:03:06;;;;;;;5.10;3.83;;;20.70;99.90;;;;;;5110140;27;20473;-73
2021/08/01 07:05:33;;;;;;;6.37;3.70;;;21.00;99.90;;;;;;5111300;27;20481;-73
2021/08/01 07:08:00;;;;;;;6.30;3.73;;;21.20;99.90;;;;;;5111683;28;20939;-74
2021/08/01 07:10:26;;;;;;;5.50;3.17;;;21.40;99.90;;;;;;5105259;27;20453;-74
2021/08/01 07:12:53;;;;;;;4.23;2.70;;;21.60;99.90;;;;;;5103428;27;20469;-74
2021/08/01 07:15:25;;;;;;;5.83;3.10;;;21.90;99.90;;;;;;5130226;27;20447;-73
2021/08/01 07:17:56;;;;;;;5.40;2.67;;;22.20;99.90;;;;;;5108086;27;20485;-73
2021/08/01 07:20:24;;;;;;;4.33;2.53;;;22.40;99.90;;;;;;5114718;28;20489;-73
2021/08/01 07:22:51;;;;;;;6.07;2.60;;;22.70;99.90;;;;;;5096767;27;20477;-74
2021/08/01 07:25:19;;;;;;;7.13;2.87;;;;;;;;;;5085138;28;20446;-74
2021/08/01 07:27:46;;;;;;;4.73;3.00;;;;;;;;;;5106112;28;20439;-75
2021/08/01 07:30:14;;;;;;;4.60;2.43;;;23.70;99.90;;;;;;5094810;28;20435;-73
2021/08/01 07:32:41;;;;;;;3.67;2.10;;;23.90;99.90;;;;;;5105659;27;20823;-75
2021/08/01 07:35:10;;;;;;;4.83;2.33;;;24.10;99.90;;;;;;5105876;28;20446;-76
2021/08/01 07:37:37;;;;;;;4.03;2.30;;;24.30;99.90;;;;;;5116363;28;20426;-75
2021/08/01 07:40:05;;;;;;;4.77;2.20;;;24.50;99.90;;;;;;5105323;27;20829;-75
2021/08/01 07:42:32;;;;;;;4.53;2.00;;;24.70;99.90;;;;;;5114590;28;20979;-76
2021/08/01 07:45:02;;;;;;;3.57;1.90;;;24.80;99.90;;;;;;5091791;28;20784;-76
2021/08/01 07:47:30;;;;;;;2.40;2.00;;;25.00;99.90;;;;;;5100702;28;20455;-76
2021/08/01 07:49:58;;;;;;;4.03;1.67;;;25.10;99.90;;;;;;5118974;27;20457;-77
2021/08/01 07:52:26;;;;;;;4.57;2.30;;;25.20;99.90;;;;;;5134731;27;20453;-76
2021/08/01 07:54:53;;;;;;;4.90;2.30;;;25.20;99.90;;;;;;5102990;27;20451;-78
2021/08/01 07:57:23;;;;;;;2.43;2.00;;;25.40;99.90;;;;;;5111479;28;26260;-77
2021/08/01 07:59:50;;;;;;;3.33;1.90;;;25.40;99.90;;;;;;5115971;28;20427;-74
2021/08/01 08:02:17;;;;;;;2.67;2.03;;;25.40;99.90;;;;;;5108865;27;20486;-76
2021/08/01 08:04:44;;;;;;;3.90;2.13;;;25.40;99.90;;;;;;5101943;27;20939;-74
2021/08/01 08:07:11;;;;;;;3.57;1.97;;;25.30;99.90;;;;;;5114772;28;20798;-73
2021/08/01 08:09:39;;;;;;;2.70;1.93;;;25.20;99.90;;;;;;5106871;28;20426;-73
2021/08/01 08:12:07;;;;;;;8.60;2.37;;;25.10;99.90;;;;;;5104580;27;20462;-74
2021/08/01 08:14:34;;;;;;;3.80;2.63;;;24.90;99.90;;;;;;5111255;28;20443;-72
2021/08/01 08:17:00;;;;;;;4.07;2.20;;;24.80;99.90;;;;;;5086642;28;20495;-73
2021/08/01 08:19:28;;;;;;;2.60;1.93;;;24.60;99.90;;;;;;5101744;27;20460;-74
2021/08/01 08:21:56;;;;;;;3.90;2.50;;;24.50;99.90;;;;;;5097000;28;20482;-73
2021/08/01 08:24:23;;;;;;;5.33;2.27;;;24.50;99.90;;;;;;5106430;27;21069;-74
2021/08/01 08:26:51;;;;;;;3.60;1.97;;;24.50;99.90;;;;;;5083246;28;20450;-74
2021/08/01 08:29:18;;;;;;;6.67;2.83;;;24.50;99.90;;;;;;5110431;28;20447;-73
2021/08/01 08:31:50;;;;;;;4.73;2.67;;;24.60;99.90;;;;;;5098123;28;20963;-74
2021/08/01 08:34:18;;;;;;;2.83;2.17;;;24.70;99.90;;;;;;5091312;27;21095;-73
2021/08/01 08:36:47;;;;;;;4.17;2.33;;;24.70;99.90;;;;;;5104384;27;20965;-77
2021/08/01 08:39:14;;;;;;;3.20;2.00;;;24.80;99.90;;;;;;5091616;28;20470;-74
2021/08/01 08:41:42;;;;;;;3.83;2.20;;;24.80;99.90;;;;;;5094631;28;20498;-74
2021/08/01 08:44:10;;;;;;;4.37;2.40;;;24.80;99.90;;;;;;5103056;27;20450;-75
2021/08/01 08:46:38;;;;;;;4.53;2.10;;;24.70;99.90;;;;;;5083025;28;20453;-74
2021/08/01 08:49:09;;;;;;;3.77;2.17;;;24.70;99.90;;;;;;5113090;28;20458;-75
2021/08/01 08:51:37;;;;;;;4.53;1.97;;;24.70;99.90;;;;;;5089140;28;20484;-74
2021/08/01 08:54:05;;;;;;;3.73;2.07;;;24.70;99.90;;;;;;5081074;28;20455;-75
2021/08/01 08:56:32;;;;;;;5.17;2.53;;;24.70;99.90;;;;;;5092714;28;20549;-75
2021/08/01 08:58:59;;;;;;;3.07;2.13;;;24.70;99.90;;;;;;5106428;27;20932;-76
2021/08/01 09:01:28;;;;;;;3.77;2.33;;;24.70;99.90;;;;;;5097640;28;20988;-74
2021/08/01 09:03:54;;;;;;;2.77;2.33;;;24.50;99.90;;;;;;5097612;27;20451;-75
2021/08/01 09:06:22;;;;;;;5.23;2.10;;;24.40;99.90;;;;;;5097724;27;20555;-74
2021/08/01 09:08:49;;;;;;;2.90;1.90;;;24.30;99.90;;;;;;5107871;28;20430;-74
2021/08/01 09:11:15;;;;;;;3.97;2.50;;;24.20;99.90;;;;;;5110086;28;20449;-74
2021/08/01 09:13:44;;;;;;;3.60;2.27;;;24.10;99.90;;;;;;5104599;27;20461;-75
2021/08/01 09:16:11;;;;;;;3.87;2.03;;;24.10;99.90;;;;;;5091716;28;20820;-74
2021/08/01 09:18:39;;;;;;;2.83;2.20;;;24.00;99.90;;;;;;5102670;27;20787;-76
2021/08/01 09:21:06;;;;;;;3.67;2.70;;;24.00;99.90;;;;;;5096660;27;20493;-74
2021/08/01 09:23:35;;;;;;;3.23;2.50;;;24.00;99.90;;;;;;5075653;27;20458;-75
2021/08/01 09:26:04;;;;;;;5.00;2.73;;;23.90;99.90;;;;;;5095445;28;20450;-75
2021/08/01 09:28:32;;;;;;;4.17;2.30;;;23.80;99.90;;;;;;5084854;28;20473;-73
2021/08/01 09:31:01;;;;;;;3.40;2.33;;;23.70;99.90;;;;;;5100264;27;20828;-75
2021/08/01 09:33:37;;;;;;;3.20;2.03;;;23.60;99.90;;;;;;5082075;28;20872;-75
2021/08/01 09:36:08;;;;;;;3.20;2.10;;;23.50;99.90;;;;;;5093633;28;20790;-75
2021/08/01 09:38:44;;;;;;;3.50;2.40;;;23.30;99.90;;;;;;5084544;28;20533;-76
2021/08/01 09:41:11;;;;;;;2.77;2.03;;;23.20;99.90;;;;;;5094120;28;20809;-75
2021/08/01 09:43:45;;;;;;;3.10;2.00;;;23.20;99.90;;;;;;5096556;28;20547;-75
2021/08/01 09:46:13;;;;;;;3.57;2.30;;;23.10;99.90;;;;;;5062364;28;21093;-76
2021/08/01 09:48:41;;;;;;;4.40;2.60;;;23.00;99.90;;;;;;5096574;27;20479;-74
2021/08/01 09:51:11;;;;;;;5.37;2.70;;;22.90;99.90;;;;;;5089989;28;20439;-75
2021/08/01 09:53:40;;;;;;;3.40;2.60;;;22.80;99.90;;;;;;5075739;28;20453;-74
2021/08/01 09:56:19;;;;;;;5.70;2.60;;;22.80;99.90;;;;;;5085030;27;20466;-71
2021/08/01 09:58:48;;;;;;;4.30;2.20;;;22.70;99.90;;;;;;5107651;27;20439;-73
2021/08/01 10:01:15;;;;;;;3.10;2.10;;;22.70;99.90;;;;;;5101067;28;21912;-74
2021/08/01 10:03:43;;;;;;;3.57;2.70;;;22.60;99.90;;;;;;5107914;27;20450;-73
2021/08/01 10:06:13;;;;;;;4.40;2.43;;;22.60;99.90;;;;;;5090802;28;20435;-74
2021/08/01 10:08:42;;;;;;;3.70;2.50;;;22.50;99.90;;;;;;5086800;28;20804;-72
2021/08/01 10:11:13;;;;;;;3.57;2.53;;;22.50;99.90;;;;;;5085674;28;20456;-73
2021/08/01 10:13:42;;;;;;;3.33;2.67;;;22.50;99.90;;;;;;5089340;28;20435;-74
2021/08/01 10:16:10;;;;;;;3.53;2.67;;;22.50;99.90;;;;;;5100741;28;20552;-75
2021/08/01 10:18:38;;;;;;;3.40;2.60;;;22.50;99.90;;;;;;5097691;28;20450;-73
2021/08/01 10:21:06;;;;;;;2.97;2.30;;;22.50;99.90;;;;;;5111511;28;20474;-73
2021/08/01 10:23:39;;;;;;;5.10;2.70;;;22.50;99.90;;;;;;5090246;28;20438;-73
2021/08/01 10:26:08;;;;;;;3.03;2.40;;;22.50;99.90;;;;;;5086002;28;20446;-73
2021/08/01 10:28:40;;;;;;;3.37;2.67;;;22.50;99.90;;;;;;5089687;28;20799;-73
2021/08/01 10:31:11;;;;;;;3.40;2.83;;;22.60;99.90;;;;;;5085452;28;20446;-74
2021/08/01 10:33:45;;;;;;;4.20;2.70;;;22.50;99.90;;;;;;5103424;28;20461;-73
2021/08/01 10:36:17;;;;;;;2.80;2.23;;;22.50;99.90;;;;;;5088649;28;20434;-73
2021/08/01 10:38:47;;;;;;;6.23;3.17;;;22.40;99.90;;;;;;5099797;28;20450;-73
2021/08/01 10:41:14;;;;;;;4.37;2.77;;;22.40;99.90;;;;;;5099251;28;20493;-73
2021/08/01 10:43:42;;;;;;;4.70;2.47;;;22.40;99.90;;;;;;5107835;28;20457;-72
2021/08/01 10:46:10;;;;;;;5.53;2.67;;;22.40;99.90;;;;;;5118088;28;20434;-72
2021/08/01 10:48:37;;;;;;;5.10;2.43;;;22.30;99.90;;;;;;5105116;28;20458;-72
2021/08/01 10:51:04;;;;;;;2.93;2.37;;;22.30;99.90;;;;;;5098188;28;20789;-73
2021/08/01 10:53:31;;;;;;;5.17;2.83;;;22.30;99.90;;;;;;5091035;28;20455;-71
2021/08/01 10:56:28;;;;;;;4.23;3.03;;;22.20;99.90;;;;;;5099823;28;20454;-73
2021/08/01 10:58:56;;;;;;;5.10;2.70;;;22.20;99.90;;;;;;5108198;28;20450;-73
2021/08/01 11:01:23;;;;;;;3.83;2.97;;;22.20;99.90;;;;;;5112040;28;20482;-73
2021/08/01 11:04:25;;;;;;;3.60;2.77;;;22.20;99.90;;;;;;5103737;28;20439;-73
2021/08/01 11:06:52;;;;;;;3.50;2.20;;;22.10;99.90;;;;;;5098608;28;20430;-72
2021/08/01 11:09:19;;;;;;;4.23;2.50;;;22.10;99.90;;;;;;5104973;28;20950;-74
2021/08/01 11:11:52;;;;;;;3.17;2.60;;;22.00;99.90;;;;;;5103824;28;20474;-74
2021/08/01 11:14:47;;;;;;;3.13;2.60;;;22.00;99.90;;;;;;5101396;28;20975;-73
2021/08/01 11:17:16;;;;;;;3.30;2.40;;;22.00;99.90;;;;;;5084966;28;20454;-73
2021/08/01 11:19:44;;;;;;;2.87;2.63;;;22.10;99.90;;;;;;5109277;28;20434;-75
2021/08/01 11:22:52;;;;;;;5.07;2.40;;;22.20;99.90;;;;;;5081798;28;20486;-75
2021/08/01 11:25:20;;;;;;;3.43;2.50;;;22.20;99.90;;;;;;5067935;28;20450;-76
2021/08/01 11:28:16;;;;;;;2.60;2.40;;;22.30;99.90;;;;;;5110314;27;20901;-74
2021/08/01 11:31:10;;;;;;;5.10;3.20;;;22.40;99.90;;;;;;5090207;28;20466;-76
2021/08/01 11:33:39;;;;;;;5.33;2.60;;;22.40;99.90;;;;;;5077668;28;20446;-74
2021/08/01 11:36:23;;;;;;;3.30;3.00;;;22.50;99.90;;;;;;5083613;28;20450;-76
2021/08/01 11:39:06;;;;;;;3.73;2.97;;;22.50;99.90;;;;;;5096923;28;20451;-75
2021/08/01 11:41:38;;;;;;;3.90;2.73;;;22.60;99.90;;;;;;5087421;28;20540;-74
2021/08/01 11:44:07;;;;;;;3.73;2.70;;;22.60;99.90;;;;;;5079658;28;20469;-75
2021/08/01 11:46:59;;;;;;;3.93;3.10;;;22.70;99.90;;;;;;5088651;28;20435;-75
2021/08/01 11:49:27;;;;;;;3.17;2.60;;;22.70;99.90;;;;;;5072913;28;20443;-75
2021/08/01 11:51:55;;;;;;;2.60;2.40;;;22.70;99.90;;;;;;5083275;28;21670;-74
2021/08/01 11:54:27;;;;;;;2.50;2.30;;;22.70;99.90;;;;;;5059665;28;20925;-75
2021/08/01 11:56:56;;;;;;;4.37;2.90;;;22.80;99.90;;;;;;5068211;28;20454;-76
2021/08/01 11:59:24;;;;;;;3.40;3.10;;;22.80;99.90;;;;;;5081220;28;20876;-74
2021/08/01 12:01:52;;;;;;;5.93;2.70;;;22.80;99.90;;;;;;5079617;28;20919;-77
2021/08/01 12:04:21;;;;;;;2.93;2.70;;;22.80;99.90;;;;;;5081102;28;20444;-73
2021/08/01 12:06:51;;;;;;;3.70;2.20;;;22.80;99.90;;;;;;5083211;28;20452;-75
2021/08/01 12:09:18;;;;;;;2.93;2.60;;;22.90;99.90;;;;;;5089044;28;20436;-75
2021/08/01 12:11:47;;;;;;;4.10;2.77;;;22.90;99.90;;;;;;5087809;28;20486;-73
2021/08/01 12:14:14;;;;;;;2.73;2.50;;;23.00;99.90;;;;;;5092141;28;20810;-74
2021/08/01 12:16:59;;;;;;;3.77;2.60;;;23.10;99.90;;;;;;5094199;28;20447;-73
2021/08/01 12:19:29;;;;;;;3.17;2.57;;;23.20;99.90;;;;;;5092091;28;20489;-74
2021/08/01 12:21:59;;;;;;;5.27;2.40;;;23.20;99.90;;;;;;5094082;28;20479;-74
2021/08/01 12:24:28;;;;;;;3.37;3.07;;;23.30;99.90;;;;;;5087625;28;20452;-74
2021/08/01 12:26:59;;;;;;;3.10;2.63;;;23.30;99.90;;;;;;5082935;28;20446;-76
2021/08/01 12:29:42;;;;;;;4.13;2.80;;;23.30;99.90;;;;;;5073750;28;20455;-76
2021/08/01 12:32:25;;;;;;;2.60;2.40;;;23.20;99.90;;;;;;5065078;28;20459;-75
2021/08/01 12:35:04;;;;;;;2.93;2.63;;;23.20;99.90;;;;;;5042199;28;20456;-78
2021/08/01 12:37:31;;;;;;;4.60;2.60;;;23.20;99.90;;;;;;5057459;28;20457;-79
2021/08/01 12:39:58;;;;;;;4.10;3.00;;;23.20;99.90;;;;;;5059297;28;20460;-77
2021/08/01 12:42:25;;;;;;;3.03;2.73;;;23.10;99.90;;;;;;5055397;28;20495;-77
2021/08/01 12:44:55;;;;;;;3.23;2.70;;;23.20;99.90;;;;;;5054791;28;20610;-76
2021/08/01 12:47:22;;;;;;;3.53;3.00;;;23.20;99.90;;;;;;5065785;28;20436;-75
2021/08/01 12:49:50;;;;;;;2.90;2.13;;;23.20;99.90;;;;;;5044957;28;20440;-77
2021/08/01 12:52:21;;;;;;;2.90;2.33;;;23.10;99.90;;;;;;5059524;28;20502;-76
2021/08/01 12:54:49;;;;;;;3.53;2.60;;;23.10;99.90;;;;;;5017487;28;20548;-74
2021/08/01 12:57:16;;;;;;;3.80;3.10;;;23.10;99.90;;;;;;5062436;28;20462;-74